Time;durP1;ratioP1;P1;durP2;ratioP2;P2;SDS_P1;SDS_P2;PMS_P1;PMS_P2;Temp;Humidity;BMP_temperature;BMP_pressure;BME280_temperature;BME280_humidity;BME280_pressure;Samples;Min_cycle;Max_cycle;Signal;HPM_P1;HPM_P2
2023/07/04 00:01:01;;;;;;;;;;;;;;;24.51;67.58;100610.84;7394711;19;1983;-53
2023/07/04 00:03:30;;;;;;;;;;;;;;;24.47;67.68;100598.69;7394671;19;1546;-53
2023/07/04 00:06:01;;;;;;;;;;;;;;;24.50;67.50;100603.75;7395209;19;1557;-53
2023/07/04 00:08:33;;;;;;;;;;;;;;;24.48;67.45;100605.75;7393990;19;1829;-53
2023/07/04 00:11:02;;;;;;;;;;;;;;;24.47;67.42;100595.13;7396068;19;1370;-53
2023/07/04 00:13:30;;;;;;;;;;;;;;;24.46;67.53;100594.28;7395315;19;1854;-53
2023/07/04 00:15:59;;;;;;;;;;;;;;;24.53;67.60;100597.16;7394997;19;1644;-53
2023/07/04 00:18:28;;;;;;;;;;;;;;;24.51;67.33;100594.63;7394425;19;1735;-53
2023/07/04 00:20:58;;;;;;;;;;;;;;;24.46;67.71;100591.56;7393745;19;1715;-53
2023/07/04 00:23:31;;;;;;;;;;;;;;;24.47;67.80;100598.69;7396158;19;1813;-53
2023/07/04 00:25:59;;;;;;;;;;;;;;;24.50;67.73;100605.59;7397321;19;1398;-53
2023/07/04 00:28:28;;;;;;;;;;;;;;;24.48;67.32;100596.81;7404295;19;1032;-53
2023/07/04 00:30:57;;;;;;;;;;;;;;;24.48;67.72;100600.34;7400323;19;1795;-53
2023/07/04 00:33:27;;;;;;;;;;;;;;;24.44;67.76;100587.38;7401458;19;1934;-53
2023/07/04 00:36:00;;;;;;;;;;;;;;;24.50;67.44;100598.34;7402704;19;1770;-53
2023/07/04 00:38:32;;;;;;;;;;;;;;;24.44;67.83;100590.91;7403646;19;1802;-53
2023/07/04 00:41:01;;;;;;;;;;;;;;;24.47;67.55;100595.97;7404118;19;1053;-53
2023/07/04 00:43:45;;;;;;;;;;;;;;;24.50;67.43;100600.19;7402565;19;1833;-53
2023/07/04 00:46:14;;;;;;;;;;;;;;;24.49;67.56;100603.88;7403063;19;1481;-53
2023/07/04 00:48:44;;;;;;;;;;;;;;;24.49;67.51;100602.06;7401980;19;1525;-53
2023/07/04 00:51:21;;;;;;;;;;;;;;;24.51;67.48;100596.47;7401700;19;1822;-53
2023/07/04 00:53:55;;;;;;;;;;;;;;;24.47;67.42;100597.81;7398876;19;1941;-53
2023/07/04 00:56:25;;;;;;;;;;;;;;;24.50;67.41;100601.06;7400538;19;909;-53
2023/07/04 00:58:54;;;;;;;;;;;;;;;24.48;67.37;100605.75;7400646;19;1853;-53
2023/07/04 01:01:22;;;;;;;;;;;;;;;24.47;67.44;100601.38;7401921;19;1029;-54
2023/07/04 01:03:52;;;;;;;;;;;;;;;24.49;67.46;100601.19;7399306;19;1117;-53
2023/07/04 01:06:24;;;;;;;;;;;;;;;24.44;67.55;100607.13;7402441;19;1888;-53
2023/07/04 01:08:58;;;;;;;;;;;;;;;24.48;67.73;100616.56;7401397;19;1599;-53
2023/07/04 01:11:32;;;;;;;;;;;;;;;24.48;67.51;100624.69;7401210;19;1542;-53
2023/07/04 01:14:03;;;;;;;;;;;;;;;24.46;67.54;100618.59;7400565;19;1935;-52
2023/07/04 01:16:31;;;;;;;;;;;;;;;24.48;67.65;100621.97;7401681;19;1375;-53
2023/07/04 01:19:00;;;;;;;;;;;;;;;24.47;67.78;100619.44;7401357;19;1730;-53
2023/07/04 01:21:29;;;;;;;;;;;;;;;24.52;67.60;100611.69;7399803;19;1465;-53
2023/07/04 01:24:04;;;;;;;;;;;;;;;24.49;67.56;100618.28;7399998;19;1785;-53
2023/07/04 01:26:37;;;;;;;;;;;;;;;24.52;67.56;100622.50;7399821;19;1422;-53
2023/07/04 01:29:06;;;;;;;;;;;;;;;24.50;67.33;100629.91;7400834;19;1013;-53
2023/07/04 01:31:35;;;;;;;;;;;;;;;24.50;67.57;100616.41;7399414;19;1596;-53
2023/07/04 01:34:05;;;;;;;;;;;;;;;24.52;67.44;100614.41;7398759;19;1858;-53
2023/07/04 01:36:34;;;;;;;;;;;;;;;24.50;67.32;100613.69;7400060;19;1382;-53
2023/07/04 01:39:03;;;;;;;;;;;;;;;24.53;67.20;100603.41;7400366;19;1793;-53
2023/07/04 01:41:32;;;;;;;;;;;;;;;24.48;67.42;100635.50;7400158;19;1446;-52
2023/07/04 01:44:04;;;;;;;;;;;;;;;24.48;67.32;100626.56;7399992;19;1465;-52
2023/07/04 01:46:32;;;;;;;;;;;;;;;24.51;67.57;100623.50;7400776;19;1805;-53
2023/07/04 01:49:01;;;;;;;;;;;;;;;24.48;67.50;100632.78;7401944;19;1025;-53
2023/07/04 01:51:30;;;;;;;;;;;;;;;24.55;67.18;100638.34;7400611;19;1852;-53
2023/07/04 01:53:59;;;;;;;;;;;;;;;24.50;67.24;100630.78;7397512;19;1856;-53
2023/07/04 01:56:28;;;;;;;;;;;;;;;24.53;67.38;100646.66;7398183;19;1327;-53
2023/07/04 01:58:56;;;;;;;;;;;;;;;24.50;67.50;100638.03;7399603;19;1910;-53
2023/07/04 02:01:27;;;;;;;;;;;;;;;24.49;67.58;100639.03;7400353;19;1770;-52
2023/07/04 02:03:55;;;;;;;;;;;;;;;24.47;67.25;100635.66;7399035;19;1114;-53
2023/07/04 02:06:24;;;;;;;;;;;;;;;24.49;67.49;100639.03;7399677;19;1912;-53
2023/07/04 02:08:53;;;;;;;;;;;;;;;24.46;67.55;100631.28;7399086;19;1953;-53
2023/07/04 02:11:21;;;;;;;;;;;;;;;24.44;67.62;100636.88;7398869;19;1529;-53
2023/07/04 02:13:50;;;;;;;;;;;;;;;24.45;67.66;100635.81;7399352;19;1461;-53
2023/07/04 02:16:18;;;;;;;;;;;;;;;24.44;67.46;100636.88;7398699;19;1387;-53
2023/07/04 02:18:49;;;;;;;;;;;;;;;24.46;67.75;100644.81;7398627;19;1457;-53
2023/07/04 02:21:18;;;;;;;;;;;;;;;24.45;67.53;100649.34;7398232;19;1348;-53
2023/07/04 02:23:46;;;;;;;;;;;;;;;24.44;67.50;100647.69;7397706;19;1790;-53
2023/07/04 02:26:15;;;;;;;;;;;;;;;24.48;67.54;100659.81;7399248;19;1726;-53
2023/07/04 02:28:43;;;;;;;;;;;;;;;24.41;67.75;100643.47;7399423;19;1049;-53
2023/07/04 02:31:11;;;;;;;;;;;;;;;24.46;67.62;100648.34;7396448;19;1607;-53
2023/07/04 02:33:39;;;;;;;;;;;;;;;24.47;67.58;100641.94;7399040;19;1730;-53
2023/07/04 02:36:11;;;;;;;;;;;;;;;24.50;67.50;100652.41;7396196;19;1833;-53
2023/07/04 02:38:40;;;;;;;;;;;;;;;24.53;67.18;100641.25;7398607;19;1727;-54
2023/07/04 02:41:09;;;;;;;;;;;;;;;24.49;67.42;100648.00;7399293;19;1777;-53
2023/07/04 02:43:38;;;;;;;;;;;;;;;24.48;67.63;100640.91;7398891;19;1093;-53
2023/07/04 02:46:07;;;;;;;;;;;;;;;24.50;67.38;100646.13;7396787;19;1595;-53
2023/07/04 02:48:36;;;;;;;;;;;;;;;24.57;67.09;100652.53;7394581;19;1897;-53
2023/07/04 02:51:05;;;;;;;;;;;;;;;24.49;67.57;100655.25;7397814;19;2218;-53
2023/07/04 02:53:35;;;;;;;;;;;;;;;24.54;67.17;100655.63;7398782;19;1648;-53
2023/07/04 02:56:04;;;;;;;;;;;;;;;24.47;67.39;100651.88;7397499;19;1841;-53
2023/07/04 02:58:32;;;;;;;;;;;;;;;24.53;67.32;100662.88;7396281;19;1426;-53
2023/07/04 03:01:00;;;;;;;;;;;;;;;24.51;67.42;100650.53;7396218;19;1818;-53
2023/07/04 03:03:29;;;;;;;;;;;;;;;24.49;67.52;100653.41;7395677;19;1370;-53
2023/07/04 03:05:58;;;;;;;;;;;;;;;24.50;67.36;100652.41;7397732;19;1394;-53
2023/07/04 03:08:26;;;;;;;;;;;;;;;24.45;67.33;100657.44;7397668;19;1731;-52
2023/07/04 03:10:57;;;;;;;;;;;;;;;24.48;67.44;100661.69;7397472;19;1672;-53
2023/07/04 03:13:25;;;;;;;;;;;;;;;24.47;67.38;100663.56;7398356;19;1047;-53
2023/07/04 03:15:54;;;;;;;;;;;;;;;24.53;67.36;100664.72;7397248;19;1849;-53
2023/07/04 03:18:22;;;;;;;;;;;;;;;24.42;67.32;100655.13;7396622;19;1623;-53
2023/07/04 03:20:50;;;;;;;;;;;;;;;24.40;67.66;100667.97;7396856;19;1506;-53
2023/07/04 03:23:19;;;;;;;;;;;;;;;24.40;67.40;100667.97;7397347;19;1362;-53
2023/07/04 03:26:07;;;;;;;;;;;;;;;24.43;67.71;100656.78;7397745;19;1813;-53
2023/07/04 03:28:38;;;;;;;;;;;;;;;24.44;67.50;100668.47;7397868;19;1058;-53
2023/07/04 03:31:07;;;;;;;;;;;;;;;24.42;67.52;100682.16;7394259;19;1513;-53
2023/07/04 03:33:35;;;;;;;;;;;;;;;24.40;67.55;100678.78;7397204;19;1699;-53
2023/07/04 03:36:05;;;;;;;;;;;;;;;24.38;67.72;100688.91;7396536;19;1835;-53
2023/07/04 03:38:34;;;;;;;;;;;;;;;24.45;67.43;100686.34;7397118;19;1393;-53
2023/07/04 03:41:02;;;;;;;;;;;;;;;24.44;67.62;100685.50;7396192;19;1418;-53
2023/07/04 03:43:31;;;;;;;;;;;;;;;24.49;67.24;100682.28;7394153;19;1951;-53
2023/07/04 03:46:02;;;;;;;;;;;;;;;24.44;67.50;100688.22;7395423;19;1853;-53
2023/07/04 03:48:31;;;;;;;;;;;;;;;24.42;67.53;100676.75;7396049;19;1526;-53
2023/07/04 03:50:59;;;;;;;;;;;;;;;24.47;67.55;100690.59;7396797;19;1746;-53
2023/07/04 03:53:27;;;;;;;;;;;;;;;24.42;67.59;100687.56;7395640;19;1416;-53
2023/07/04 03:55:55;;;;;;;;;;;;;;;24.40;67.66;100703.09;7394535;19;1865;-53
2023/07/04 03:58:24;;;;;;;;;;;;;;;24.44;67.61;100690.91;7393935;19;1811;-53
2023/07/04 04:00:53;;;;;;;;;;;;;;;24.35;67.68;100683.84;7402539;19;1093;-53
2023/07/04 04:03:24;;;;;;;;;;;;;;;24.32;67.91;100697.72;7401582;19;1521;-53
2023/07/04 04:05:52;;;;;;;;;;;;;;;24.26;67.99;100687.59;7403178;19;1417;-53
2023/07/04 04:08:21;;;;;;;;;;;;;;;24.28;68.18;100705.31;7402371;19;1512;-53
2023/07/04 04:10:49;;;;;;;;;;;;;;;24.24;68.11;100692.34;7402143;19;1386;-53
2023/07/04 04:13:18;;;;;;;;;;;;;;;24.21;68.08;100698.91;7402450;19;1651;-53
2023/07/04 04:15:46;;;;;;;;;;;;;;;24.24;68.06;100711.25;7399921;19;1952;-53
2023/07/04 04:18:14;;;;;;;;;;;;;;;24.22;67.99;100708.72;7401395;19;1378;-53
2023/07/04 04:20:45;;;;;;;;;;;;;;;24.21;68.02;100707.88;7403034;19;1980;-53
2023/07/04 04:23:15;;;;;;;;;;;;;;;24.25;68.11;100704.81;7402196;19;1398;-53
2023/07/04 04:25:45;;;;;;;;;;;;;;;24.21;68.17;100707.00;7402411;19;1328;-53
2023/07/04 04:28:14;;;;;;;;;;;;;;;24.18;68.39;100705.50;7404063;19;949;-53
2023/07/04 04:30:43;;;;;;;;;;;;;;;24.20;68.43;100700.75;7399802;19;1850;-53
2023/07/04 04:33:11;;;;;;;;;;;;;;;24.20;68.31;100698.06;7401491;19;1746;-53
2023/07/04 04:35:40;;;;;;;;;;;;;;;24.19;68.21;100711.75;7401846;19;1871;-53
2023/07/04 04:38:11;;;;;;;;;;;;;;;24.21;68.28;100713.28;7402142;19;1462;-53
2023/07/04 04:40:40;;;;;;;;;;;;;;;24.21;68.33;100717.81;7401766;19;1565;-53
2023/07/04 04:43:08;;;;;;;;;;;;;;;24.30;68.10;100715.97;7401459;19;1858;-53
2023/07/04 04:45:36;;;;;;;;;;;;;;;24.29;68.00;100719.66;7401737;19;1805;-53
2023/07/04 04:48:06;;;;;;;;;;;;;;;24.29;68.18;100703.44;7402583;19;1797;-53
2023/07/04 04:50:35;;;;;;;;;;;;;;;24.28;68.05;100718.00;7402209;19;1797;-53
2023/07/04 04:53:03;;;;;;;;;;;;;;;24.29;67.95;100708.84;7401565;19;1364;-53
2023/07/04 04:55:35;;;;;;;;;;;;;;;24.27;68.23;100713.59;7402206;19;1851;-53
2023/07/04 04:58:05;;;;;;;;;;;;;;;24.25;68.07;100707.50;7399023;19;1912;-53
2023/07/04 05:00:33;;;;;;;;;;;;;;;24.28;68.17;100712.59;7401891;19;1405;-53
2023/07/04 05:03:01;;;;;;;;;;;;;;;24.26;68.19;100715.47;7399947;19;2129;-53
2023/07/04 05:05:30;;;;;;;;;;;;;;;24.36;67.96;100715.28;7401185;19;1806;-53
2023/07/04 05:07:58;;;;;;;;;;;;;;;24.28;68.22;100713.44;7400275;19;838;-53
2023/07/04 05:10:26;;;;;;;;;;;;;;;24.26;68.40;100706.50;7401456;19;1486;-53
2023/07/04 05:12:57;;;;;;;;;;;;;;;24.22;68.41;100704.13;7399343;19;1542;-53
2023/07/04 05:15:26;;;;;;;;;;;;;;;24.23;68.50;100713.09;7400280;19;1849;-53
2023/07/04 05:17:54;;;;;;;;;;;;;;;24.21;68.36;100715.13;7401330;19;1736;-53
2023/07/04 05:20:24;;;;;;;;;;;;;;;24.24;68.63;100713.94;7398550;19;1807;-53
2023/07/04 05:22:54;;;;;;;;;;;;;;;24.29;68.43;100719.66;7401778;19;950;-53
2023/07/04 05:25:22;;;;;;;;;;;;;;;24.30;68.49;100721.38;7401187;19;1034;-53
2023/07/04 05:27:52;;;;;;;;;;;;;;;24.27;68.26;100719.00;7400781;19;1854;-53
2023/07/04 05:30:24;;;;;;;;;;;;;;;24.29;68.52;100722.38;7396852;19;1526;-53
2023/07/04 05:32:53;;;;;;;;;;;;;;;24.30;68.30;100716.78;7401685;19;1022;-53
2023/07/04 05:35:21;;;;;;;;;;;;;;;24.34;68.11;100726.25;7398692;19;1865;-53
2023/07/04 05:37:49;;;;;;;;;;;;;;;24.34;68.14;100722.72;7399655;19;1953;-53
2023/07/04 05:40:18;;;;;;;;;;;;;;;24.48;67.67;100743.63;7400491;19;1332;-53
2023/07/04 05:42:46;;;;;;;;;;;;;;;24.41;68.06;100729.09;7400371;19;1794;-53
2023/07/04 05:45:14;;;;;;;;;;;;;;;24.40;68.08;100735.53;7398924;19;1728;-53
2023/07/04 05:47:45;;;;;;;;;;;;;;;24.39;68.28;100726.59;7398953;19;1685;-53
2023/07/04 05:50:13;;;;;;;;;;;;;;;24.49;67.65;100725.53;7398142;19;1734;-53
2023/07/04 05:52:41;;;;;;;;;;;;;;;24.52;67.51;100731.47;7399254;19;1029;-53
2023/07/04 05:55:10;;;;;;;;;;;;;;;24.50;67.83;100738.06;7399895;19;1869;-53
2023/07/04 05:57:39;;;;;;;;;;;;;;;24.49;67.87;100731.81;7399262;19;1571;-53
2023/07/04 06:00:09;;;;;;;;;;;;;;;24.52;67.71;100730.63;7398847;19;1959;-53
2023/07/04 06:02:39;;;;;;;;;;;;;;;24.58;67.82;100733.47;7399150;19;1831;-53
2023/07/04 06:05:10;;;;;;;;;;;;;;;24.58;67.79;100730.78;7396460;19;1468;-53
2023/07/04 06:07:39;;;;;;;;;;;;;;;24.54;67.89;100734.84;7397510;19;1727;-53
2023/07/04 06:10:08;;;;;;;;;;;;;;;24.54;67.98;100737.56;7399531;19;1462;-53
2023/07/04 06:12:36;;;;;;;;;;;;;;;24.50;67.82;100733.50;7398880;19;1449;-53
2023/07/04 06:15:04;;;;;;;;;;;;;;;24.48;67.85;100738.22;7398878;19;1671;-53
2023/07/04 06:17:32;;;;;;;;;;;;;;;24.46;68.07;100732.13;7397765;19;1866;-53
2023/07/04 06:20:01;;;;;;;;;;;;;;;24.50;67.83;100733.50;7400205;19;1242;-53
2023/07/04 06:22:32;;;;;;;;;;;;;;;24.53;67.95;100730.47;7397243;19;1853;-53
2023/07/04 06:25:01;;;;;;;;;;;;;;;24.54;67.72;100740.25;7397478;19;1877;-53
2023/07/04 06:27:29;;;;;;;;;;;;;;;24.54;67.86;100734.00;7398154;19;1580;-53
2023/07/04 06:29:57;;;;;;;;;;;;;;;24.51;67.89;100729.81;7399982;19;1033;-53
2023/07/04 06:32:26;;;;;;;;;;;;;;;24.52;67.82;100742.28;7397289;19;1486;-53
2023/07/04 06:34:54;;;;;;;;;;;;;;;24.54;67.88;100734.00;7398093;19;2172;-53
2023/07/04 06:37:22;;;;;;;;;;;;;;;24.52;67.91;100734.19;7396015;19;1848;-53
2023/07/04 06:39:53;;;;;;;;;;;;;;;24.50;67.86;100720.00;7398394;19;1706;-52
2023/07/04 06:42:22;;;;;;;;;;;;;;;24.52;67.90;100726.06;7396871;19;1481;-53
2023/07/04 06:44:50;;;;;;;;;;;;;;;24.51;68.00;100739.75;7397880;19;2041;-53
2023/07/04 06:47:18;;;;;;;;;;;;;;;24.46;68.08;100729.44;7395478;19;1437;-53
2023/07/04 06:49:47;;;;;;;;;;;;;;;24.51;68.25;100723.53;7398371;19;1449;-53
2023/07/04 06:52:15;;;;;;;;;;;;;;;24.49;68.01;100729.09;7398824;19;958;-53
2023/07/04 06:54:43;;;;;;;;;;;;;;;24.46;67.94;100724.03;7396868;19;1882;-53
2023/07/04 06:57:14;;;;;;;;;;;;;;;24.51;68.02;100735.22;7397237;19;1855;-53
2023/07/04 06:59:44;;;;;;;;;;;;;;;24.49;67.98;100718.28;7397944;19;1505;-53
2023/07/04 07:02:12;;;;;;;;;;;;;;;24.48;68.05;100724.69;7397388;19;1799;-53
2023/07/04 07:04:41;;;;;;;;;;;;;;;24.50;68.04;100717.28;7396029;19;1775;-53
2023/07/04 07:07:11;;;;;;;;;;;;;;;24.53;68.33;100725.06;7397040;19;1719;-53
2023/07/04 07:09:40;;;;;;;;;;;;;;;24.52;68.02;100712.56;7397338;19;1477;-54
2023/07/04 07:12:09;;;;;;;;;;;;;;;24.51;67.84;100719.00;7396570;19;1382;-54
2023/07/04 07:14:40;;;;;;;;;;;;;;;24.59;67.87;100732.47;7396796;19;1783;-53
2023/07/04 07:17:09;;;;;;;;;;;;;;;24.56;68.17;100719.28;7395084;19;1859;-54
2023/07/04 07:19:37;;;;;;;;;;;;;;;24.55;68.13;100719.47;7395953;19;1386;-54
2023/07/04 07:22:06;;;;;;;;;;;;;;;24.54;68.00;100713.22;7398331;19;1002;-54
2023/07/04 07:24:34;;;;;;;;;;;;;;;24.55;67.94;100708.66;7396493;19;1940;-54
2023/07/04 07:27:03;;;;;;;;;;;;;;;24.53;68.13;100714.25;7397068;19;1841;-54
2023/07/04 07:29:31;;;;;;;;;;;;;;;24.55;68.24;100708.66;7397434;19;1062;-54
2023/07/04 07:32:05;;;;;;;;;;;;;;;24.55;68.21;100708.66;7395809;19;1556;-54
2023/07/04 07:34:33;;;;;;;;;;;;;;;24.54;67.86;100707.81;7397457;19;1410;-54
2023/07/04 07:37:02;;;;;;;;;;;;;;;24.55;67.98;100716.75;7401516;19;1857;-53
2023/07/04 07:39:30;;;;;;;;;;;;;;;24.57;68.12;100714.72;7403309;19;1472;-54
2023/07/04 07:41:58;;;;;;;;;;;;;;;24.57;67.85;100702.06;7403331;19;1675;-54
2023/07/04 07:44:27;;;;;;;;;;;;;;;24.55;67.80;100709.50;7404391;19;1331;-54
2023/07/04 07:46:55;;;;;;;;;;;;;;;24.58;67.97;100703.75;7403353;19;1390;-54
2023/07/04 07:49:26;;;;;;;;;;;;;;;24.59;67.84;100710.84;7404136;19;1338;-54
2023/07/04 07:51:54;;;;;;;;;;;;;;;24.59;68.15;100709.97;7405264;19;1016;-54
2023/07/04 07:54:22;;;;;;;;;;;;;;;24.68;67.85;100721.63;7402495;19;1853;-54
2023/07/04 07:56:51;;;;;;;;;;;;;;;24.63;67.95;100707.78;7401309;19;1970;-54
2023/07/04 07:59:20;;;;;;;;;;;;;;;24.63;67.80;100705.94;7402302;19;1802;-54
2023/07/04 08:01:51;;;;;;;;;;;;;;;24.67;67.98;100717.22;7402688;19;1703;-54
2023/07/04 08:04:19;;;;;;;;;;;;;;;24.67;67.69;100709.97;7400835;19;1725;-54
2023/07/04 08:06:50;;;;;;;;;;;;;;;24.68;67.90;100708.94;7403576;19;1735;-54
2023/07/04 08:09:19;;;;;;;;;;;;;;;24.70;67.57;100716.91;7400306;19;1727;-54
2023/07/04 08:11:48;;;;;;;;;;;;;;;24.70;67.59;100708.78;7403719;19;1382;-54
2023/07/04 08:14:17;;;;;;;;;;;;;;;24.70;67.59;100701.50;7403075;19;1389;-53
2023/07/04 08:16:46;;;;;;;;;;;;;;;24.73;67.42;100701.16;7403602;19;1849;-54
2023/07/04 08:19:15;;;;;;;;;;;;;;;24.77;67.41;100709.75;7403057;19;1537;-53
2023/07/04 08:21:43;;;;;;;;;;;;;;;24.79;67.37;100702.34;7402913;19;1850;-53
2023/07/04 08:24:17;;;;;;;;;;;;;;;24.80;67.40;100712.13;7402191;19;2073;-53
2023/07/04 08:26:46;;;;;;;;;;;;;;;24.83;67.36;100700.97;7402863;19;1743;-53
2023/07/04 08:29:15;;;;;;;;;;;;;;;24.83;67.54;100716.31;7403639;19;1117;-54
2023/07/04 08:31:44;;;;;;;;;;;;;;;24.81;67.17;100701.13;7402118;19;1846;-54
2023/07/04 08:34:12;;;;;;;;;;;;;;;24.83;67.44;100706.38;7402306;19;1460;-54
2023/07/04 08:36:41;;;;;;;;;;;;;;;24.81;67.39;100708.41;7400520;19;1850;-53
2023/07/04 08:39:10;;;;;;;;;;;;;;;24.83;67.25;100710.91;7402730;19;1024;-54
2023/07/04 08:41:52;;;;;;;;;;;;;;;24.77;67.43;100707.03;7400739;19;1853;-54
2023/07/04 08:44:22;;;;;;;;;;;;;;;24.78;67.53;100708.75;7401259;19;1711;-53
2023/07/04 08:46:53;;;;;;;;;;;;;;;24.76;67.35;100700.81;7398706;19;1389;-54
2023/07/04 08:49:30;;;;;;;;;;;;;;;24.80;67.31;100709.41;7402016;19;1497;-54
2023/07/04 08:52:02;;;;;;;;;;;;;;;24.83;67.35;100703.66;7403434;19;953;-53
2023/07/04 08:54:31;;;;;;;;;;;;;;;24.82;67.25;100699.25;7401481;19;1857;-53
2023/07/04 08:57:05;;;;;;;;;;;;;;;24.85;67.41;100711.59;7400516;19;1869;-54
2023/07/04 08:59:40;;;;;;;;;;;;;;;24.87;67.38;100696.88;7400321;19;1667;-54
2023/07/04 09:02:24;;;;;;;;;;;;;;;24.83;67.27;100694.69;7401276;19;1802;-54
2023/07/04 09:04:55;;;;;;;;;;;;;;;24.86;67.39;100700.59;7401050;19;1053;-53
2023/07/04 09:07:27;;;;;;;;;;;;;;;24.84;67.15;100691.81;7401581;19;1866;-53
2023/07/04 09:09:59;;;;;;;;;;;;;;;24.88;67.19;100698.56;7401118;19;1422;-53
2023/07/04 09:12:32;;;;;;;;;;;;;;;24.82;67.36;100693.84;7401112;19;1787;-53
2023/07/04 09:15:06;;;;;;;;;;;;;;;24.83;67.26;100695.56;7402032;19;1399;-53
2023/07/04 09:17:37;;;;;;;;;;;;;;;24.83;67.28;100694.69;7400845;19;1841;-53
2023/07/04 09:20:09;;;;;;;;;;;;;;;24.86;67.39;100705.16;7400254;19;1438;-53
2023/07/04 09:22:38;;;;;;;;;;;;;;;24.85;67.20;100693.50;7401089;19;1129;-53
2023/07/04 09:25:07;;;;;;;;;;;;;;;24.81;67.32;100689.47;7400903;19;1545;-53
2023/07/04 09:27:38;;;;;;;;;;;;;;;24.86;67.37;100705.16;7401005;19;1604;-53
2023/07/04 09:30:08;;;;;;;;;;;;;;;24.85;67.29;100700.75;7401669;19;1133;-54
2023/07/04 09:32:37;;;;;;;;;;;;;;;24.81;67.22;100682.19;7401285;19;1509;-53
2023/07/04 09:35:06;;;;;;;;;;;;;;;24.79;67.36;100678.84;7401149;19;1878;-53
2023/07/04 09:37:35;;;;;;;;;;;;;;;24.83;67.29;100695.56;7395757;19;1841;-54
2023/07/04 09:40:04;;;;;;;;;;;;;;;24.84;67.28;100683.69;7400816;19;1671;-54
2023/07/04 09:42:47;;;;;;;;;;;;;;;24.85;67.26;100688.09;7400604;19;1844;-54
2023/07/04 09:45:16;;;;;;;;;;;;;;;24.83;67.22;100682.03;7400971;19;1355;-54
2023/07/04 09:47:47;;;;;;;;;;;;;;;24.81;67.60;100689.47;7400561;19;1833;-54
2023/07/04 09:50:16;;;;;;;;;;;;;;;24.80;67.52;100674.25;7400131;19;1853;-54
2023/07/04 09:52:45;;;;;;;;;;;;;;;24.81;67.21;100684.06;7400126;19;1608;-54
2023/07/04 09:55:16;;;;;;;;;;;;;;;24.80;67.35;100696.72;7399898;19;1528;-54
2023/07/04 09:57:48;;;;;;;;;;;;;;;24.78;67.71;100677.13;7394444;19;1870;-54
2023/07/04 10:00:18;;;;;;;;;;;;;;;24.77;67.59;100674.59;7398934;19;1477;-53
2023/07/04 10:02:47;;;;;;;;;;;;;;;24.77;67.42;100675.47;7401183;19;949;-54
2023/07/04 10:05:25;;;;;;;;;;;;;;;24.76;67.36;100675.63;7398988;19;1109;-53
2023/07/04 10:08:01;;;;;;;;;;;;;;;24.75;67.96;100682.03;7400201;19;1027;-54
2023/07/04 10:10:31;;;;;;;;;;;;;;;24.70;67.89;100662.81;7399539;19;1575;-54
2023/07/04 10:13:02;;;;;;;;;;;;;;;24.69;67.89;100670.09;7399271;19;2040;-54
2023/07/04 10:15:38;;;;;;;;;;;;;;;24.68;67.80;100662.97;7399925;19;1959;-54
2023/07/04 10:18:14;;;;;;;;;;;;;;;24.70;67.69;100670.94;7396677;19;1832;-54
2023/07/04 10:20:43;;;;;;;;;;;;;;;24.64;67.85;100661.66;7398414;19;1597;-54
2023/07/04 10:23:11;;;;;;;;;;;;;;;24.71;67.93;100675.31;7398693;19;1429;-54
2023/07/04 10:25:39;;;;;;;;;;;;;;;24.64;68.06;100658.13;7400323;19;974;-53
2023/07/04 10:28:17;;;;;;;;;;;;;;;24.68;68.00;100659.44;7398639;19;1813;-53
2023/07/04 10:30:48;;;;;;;;;;;;;;;24.68;67.77;100656.75;7395821;19;1909;-54
2023/07/04 10:33:18;;;;;;;;;;;;;;;24.67;67.87;100657.75;7397894;19;1323;-54
2023/07/04 10:35:48;;;;;;;;;;;;;;;24.65;67.99;100674.16;7399835;19;1077;-54
2023/07/04 10:38:22;;;;;;;;;;;;;;;24.66;68.08;100662.31;7395065;19;1845;-54
2023/07/04 10:40:52;;;;;;;;;;;;;;;24.69;67.76;100661.13;7396698;19;1848;-53
2023/07/04 10:43:26;;;;;;;;;;;;;;;24.73;67.76;100663.31;7396728;19;1734;-53
2023/07/04 10:45:56;;;;;;;;;;;;;;;24.75;67.91;100653.16;7398573;19;1719;-53
2023/07/04 10:48:24;;;;;;;;;;;;;;;24.74;67.63;100654.16;7398111;19;1343;-53
2023/07/04 10:50:54;;;;;;;;;;;;;;;24.75;67.66;100645.03;7397896;19;1688;-53
2023/07/04 10:53:23;;;;;;;;;;;;;;;24.82;67.44;100650.59;7398698;19;1754;-54
2023/07/04 10:55:53;;;;;;;;;;;;;;;24.29;67.33;100568.34;7399070;19;1097;-53
2023/07/04 10:58:26;;;;;;;;;;;;;;;24.77;67.45;100642.16;7397926;19;1860;-53
2023/07/04 11:00:57;;;;;;;;;;;;;;;24.75;67.49;100638.78;7397843;19;1892;-53
2023/07/04 11:03:30;;;;;;;;;;;;;;;24.73;67.71;100644.38;7396857;19;1512;-54
2023/07/04 11:05:59;;;;;;;;;;;;;;;24.71;67.70;100638.31;7397975;19;1771;-53
2023/07/04 11:08:30;;;;;;;;;;;;;;;24.74;67.65;100637.94;7397678;19;1893;-53
2023/07/04 11:11:01;;;;;;;;;;;;;;;24.68;67.73;100638.66;7395259;19;1406;-53
2023/07/04 11:13:32;;;;;;;;;;;;;;;24.68;68.08;100627.84;7397278;19;1802;-53
2023/07/04 11:16:03;;;;;;;;;;;;;;;24.67;68.07;100628.88;7397606;19;1823;-53
2023/07/04 11:18:34;;;;;;;;;;;;;;;24.65;68.09;100627.34;7397152;19;1847;-54
2023/07/04 11:21:10;;;;;;;;;;;;;;;24.65;68.24;100627.34;7396501;19;1430;-54
2023/07/04 11:23:46;;;;;;;;;;;;;;;24.64;68.00;100610.28;7395803;19;1727;-54
2023/07/04 11:26:15;;;;;;;;;;;;;;;24.58;68.31;100611.81;7397615;19;1394;-54
2023/07/04 11:28:47;;;;;;;;;;;;;;;24.60;68.01;100612.50;7398298;19;963;-54
2023/07/04 11:31:27;;;;;;;;;;;;;;;24.59;68.25;100596.44;7394670;19;1485;-54
2023/07/04 11:34:11;;;;;;;;;;;;;;;24.58;68.32;100601.00;7395346;19;1370;-54
2023/07/04 11:36:42;;;;;;;;;;;;;;;24.53;68.31;100598.00;7396878;19;1038;-54
2023/07/04 11:39:24;;;;;;;;;;;;;;;24.52;68.51;100609.81;7394548;19;1865;-54
2023/07/04 11:41:53;;;;;;;;;;;;;;;24.52;68.56;100601.72;7396486;19;1478;-53
2023/07/04 11:44:26;;;;;;;;;;;;;;;24.53;68.31;100589.03;7397698;19;1730;-54
2023/07/04 11:46:59;;;;;;;;;;;;;;;24.58;68.26;100595.59;7396656;19;1481;-54
2023/07/04 11:49:28;;;;;;;;;;;;;;;24.57;68.40;100583.13;7396669;19;1379;-54
2023/07/04 11:52:04;;;;;;;;;;;;;;;24.59;68.18;100586.47;7396138;19;1469;-54
2023/07/04 11:54:33;;;;;;;;;;;;;;;24.66;68.27;100585.78;7396696;19;1802;-53
2023/07/04 11:57:01;;;;;;;;;;;;;;;24.70;68.01;100581.69;7395528;19;1746;-53
2023/07/04 11:59:38;;;;;;;;;;;;;;;24.67;68.16;100568.50;7392930;19;1876;-53
2023/07/04 12:02:14;;;;;;;;;;;;;;;24.63;68.04;100578.00;7395063;19;1836;-53
2023/07/04 12:04:49;;;;;;;;;;;;;;;24.65;67.82;100567.84;7393404;19;1720;-53
2023/07/04 12:07:37;;;;;;;;;;;;;;;24.67;67.99;100573.91;7397294;19;1060;-53
2023/07/04 12:10:09;;;;;;;;;;;;;;;24.63;68.17;100570.75;7396039;19;1510;-53
2023/07/04 12:12:38;;;;;;;;;;;;;;;24.60;68.18;100563.81;7395616;19;1469;-53
2023/07/04 12:15:09;;;;;;;;;;;;;;;24.59;68.24;100554.03;7396076;19;1719;-53
2023/07/04 12:17:41;;;;;;;;;;;;;;;24.57;68.09;100556.09;7395327;19;1843;-54
2023/07/04 12:20:13;;;;;;;;;;;;;;;24.61;68.14;100556.53;7394880;19;1761;-54
2023/07/04 12:22:48;;;;;;;;;;;;;;;24.55;68.45;100547.31;7403462;19;1036;-53
2023/07/04 12:25:22;;;;;;;;;;;;;;;24.58;68.26;100549.63;7403494;19;1528;-53
2023/07/04 12:27:50;;;;;;;;;;;;;;;24.57;68.27;100544.41;7402790;19;1509;-53
2023/07/04 12:30:19;;;;;;;;;;;;;;;24.58;68.46;100552.34;7398194;19;1442;-54
2023/07/04 12:32:51;;;;;;;;;;;;;;;24.55;68.33;100541.03;7404221;19;1034;-53
2023/07/04 12:35:22;;;;;;;;;;;;;;;24.56;68.24;100543.56;7402817;19;1936;-53
2023/07/04 12:37:52;;;;;;;;;;;;;;;24.58;68.26;100535.28;7399297;19;1869;-53
2023/07/04 12:40:21;;;;;;;;;;;;;;;24.59;68.21;100535.13;7402466;19;1839;-54
2023/07/04 12:42:49;;;;;;;;;;;;;;;24.57;68.32;100539.84;7401459;19;1830;-54
2023/07/04 12:45:20;;;;;;;;;;;;;;;24.57;68.17;100526.34;7402530;19;1757;-53
2023/07/04 12:47:52;;;;;;;;;;;;;;;24.58;68.34;100529.88;7403786;19;950;-54
2023/07/04 12:50:21;;;;;;;;;;;;;;;24.60;68.37;100538.66;7403534;19;1068;-54
2023/07/04 12:52:50;;;;;;;;;;;;;;;24.60;68.25;100525.97;7402374;19;1803;-53
2023/07/04 12:55:26;;;;;;;;;;;;;;;24.58;68.29;100524.47;7401474;19;1862;-54
2023/07/04 12:57:55;;;;;;;;;;;;;;;24.55;68.02;100512.16;7398082;19;1867;-53
2023/07/04 13:00:28;;;;;;;;;;;;;;;24.60;68.22;100517.03;7402047;19;1723;-53
2023/07/04 13:03:01;;;;;;;;;;;;;;;24.57;68.45;100507.41;7399425;19;1714;-54